createdAt,value
2017-03-06T00:00:14.862Z,0
2017-03-06T00:01:15.287Z,0
2017-03-06T00:02:15.338Z,0
2017-03-06T00:03:14.580Z,0
2017-03-06T00:04:14.999Z,0
2017-03-06T00:05:15.416Z,0
2017-03-06T00:06:15.851Z,0
2017-03-06T00:07:15.098Z,0
2017-03-06T00:08:15.532Z,0
2017-03-06T00:09:15.209Z,0
2017-03-06T00:10:15.615Z,0
2017-03-06T00:11:15.639Z,0
2017-03-06T00:12:14.908Z,0
2017-03-06T00:13:14.903Z,0
2017-03-06T00:14:15.727Z,0
2017-03-06T00:15:14.974Z,0
2017-03-06T00:16:15.015Z,0
2017-03-06T00:17:15.446Z,0
2017-03-06T00:18:15.876Z,0
2017-03-06T00:19:15.928Z,0
2017-03-06T00:20:15.546Z,0
2017-03-06T00:21:15.579Z,0
2017-03-06T00:22:15.624Z,0
2017-03-06T00:23:16.038Z,0
2017-03-06T00:24:15.277Z,0
2017-03-06T00:25:15.335Z,0
2017-03-06T00:26:15.741Z,0
2017-03-06T00:27:16.154Z,0
2017-03-06T00:28:16.202Z,0
2017-03-06T00:29:15.848Z,0
2017-03-06T00:30:16.259Z,0
2017-03-06T00:31:16.289Z,0
2017-03-06T00:32:15.947Z,0
2017-03-06T00:33:15.979Z,0
2017-03-06T00:34:16.013Z,0
2017-03-06T00:35:16.055Z,0
2017-03-06T00:36:16.068Z,0
2017-03-06T00:37:16.117Z,0
2017-03-06T00:38:16.135Z,0
2017-03-06T00:39:16.194Z,0
2017-03-06T00:40:15.815Z,0
2017-03-06T00:41:15.848Z,0
2017-03-06T00:42:16.313Z,0
2017-03-06T00:43:16.319Z,0
2017-03-06T00:44:16.345Z,0
2017-03-06T00:45:16.385Z,0
2017-03-06T00:46:16.038Z,0
2017-03-06T00:47:16.454Z,0
2017-03-06T00:48:16.867Z,0
2017-03-06T00:49:16.144Z,0
2017-03-06T00:50:16.146Z,0
2017-03-06T00:51:16.203Z,0
2017-03-06T00:52:16.251Z,0
2017-03-06T00:53:17.432Z,0
2017-03-06T00:54:16.697Z,0
2017-03-06T00:55:16.705Z,0
2017-03-06T00:56:17.151Z,0
2017-03-06T00:57:16.775Z,0
2017-03-06T00:58:17.226Z,0
2017-03-06T00:59:16.856Z,0
2017-03-06T01:00:16.886Z,0
2017-03-06T01:01:16.917Z,0
2017-03-06T01:02:16.564Z,0
2017-03-06T01:03:17.768Z,0
2017-03-06T01:04:17.409Z,0
2017-03-06T01:05:17.445Z,0
2017-03-06T01:06:17.082Z,0
2017-03-06T01:07:17.139Z,0
2017-03-06T01:08:17.563Z,0
2017-03-06T01:09:17.593Z,0
2017-03-06T01:10:17.608Z,0
2017-03-06T01:11:17.660Z,0
2017-03-06T01:12:17.296Z,0
2017-03-06T01:13:18.130Z,0
2017-03-06T01:14:17.755Z,0
2017-03-06T01:15:16.989Z,0
2017-03-06T01:16:17.813Z,0
2017-03-06T01:17:17.082Z,0
2017-03-06T01:18:17.480Z,0
2017-03-06T01:19:17.914Z,0
2017-03-06T01:20:17.943Z,0
2017-03-06T01:21:17.241Z,0
2017-03-06T01:22:17.627Z,0
2017-03-06T01:23:18.044Z,0
2017-03-06T01:24:18.481Z,0
2017-03-06T01:25:17.732Z,0
2017-03-06T01:26:17.375Z,0
2017-03-06T01:27:17.789Z,0
2017-03-06T01:28:17.438Z,0
2017-03-06T01:29:18.661Z,0
2017-03-06T01:30:17.523Z,0
2017-03-06T01:31:17.932Z,0
2017-03-06T01:32:17.973Z,0
2017-03-06T01:33:17.993Z,0
2017-03-06T01:34:18.028Z,0
2017-03-06T01:35:18.078Z,0
2017-03-06T01:36:18.487Z,0
2017-03-06T01:37:18.132Z,0
2017-03-06T01:38:18.149Z,0
2017-03-06T01:39:18.199Z,0
2017-03-06T01:40:18.623Z,0
2017-03-06T01:41:19.049Z,0
2017-03-06T01:42:18.712Z,0
2017-03-06T01:43:17.927Z,0
2017-03-06T01:44:18.364Z,0
2017-03-06T01:45:18.002Z,0
2017-03-06T01:46:18.039Z,0
2017-03-06T01:47:18.083Z,0
2017-03-06T01:48:18.500Z,0
2017-03-06T01:49:18.541Z,0
2017-03-06T01:50:18.581Z,0
2017-03-06T01:51:18.219Z,0
2017-03-06T01:52:18.240Z,0
2017-03-06T01:53:18.659Z,0
2017-03-06T01:54:18.699Z,0
2017-03-06T01:55:19.131Z,0
2017-03-06T01:56:18.379Z,0
2017-03-06T01:57:19.199Z,0
2017-03-06T01:58:18.441Z,0
2017-03-06T01:59:19.261Z,0
2017-03-06T02:00:18.914Z,0
2017-03-06T02:01:18.562Z,0
2017-03-06T02:02:18.996Z,0
2017-03-06T02:03:18.630Z,0
2017-03-06T02:04:19.058Z,0
2017-03-06T02:05:19.063Z,0
2017-03-06T02:06:19.497Z,0
2017-03-06T02:07:19.527Z,0
2017-03-06T02:08:19.193Z,0
2017-03-06T02:09:19.208Z,0
2017-03-06T02:10:19.254Z,0
2017-03-06T02:11:19.271Z,0
2017-03-06T02:12:20.094Z,0
2017-03-06T02:13:20.140Z,0
2017-03-06T02:14:18.992Z,0
2017-03-06T02:15:19.811Z,0
2017-03-06T02:16:19.849Z,0
2017-03-06T02:17:19.464Z,0
2017-03-06T02:18:19.517Z,0
2017-03-06T02:19:19.153Z,0
2017-03-06T02:20:19.959Z,0
2017-03-06T02:21:19.620Z,0
2017-03-06T02:22:20.028Z,0
2017-03-06T02:23:19.289Z,0
2017-03-06T02:24:19.713Z,0
2017-03-06T02:25:19.348Z,0
2017-03-06T02:26:19.775Z,0
2017-03-06T02:27:19.429Z,0
2017-03-06T02:28:20.259Z,0
2017-03-06T02:29:19.892Z,0
2017-03-06T02:30:19.918Z,0
2017-03-06T02:31:19.567Z,0
2017-03-06T02:32:20.423Z,0
2017-03-06T02:33:20.407Z,0
2017-03-06T02:34:20.867Z,0
2017-03-06T02:35:20.496Z,0
2017-03-06T02:36:20.502Z,0
2017-03-06T02:37:20.559Z,0
2017-03-06T02:38:20.188Z,0
2017-03-06T02:39:20.240Z,0
2017-03-06T02:40:21.036Z,0
2017-03-06T02:41:19.938Z,0
2017-03-06T02:42:20.725Z,0
2017-03-06T02:43:19.972Z,0
2017-03-06T02:44:20.800Z,0
2017-03-06T02:45:20.429Z,0
2017-03-06T02:46:20.101Z,0
2017-03-06T02:47:20.122Z,0
2017-03-06T02:48:20.530Z,0
2017-03-06T02:49:20.562Z,0
2017-03-06T02:50:20.995Z,0
2017-03-06T02:51:20.635Z,0
2017-03-06T02:52:20.661Z,0
2017-03-06T02:53:20.329Z,0
2017-03-06T02:54:21.531Z,0
2017-03-06T02:55:20.759Z,0
2017-03-06T02:56:20.811Z,0
2017-03-06T02:57:21.236Z,0
2017-03-06T02:58:20.888Z,0
2017-03-06T02:59:20.903Z,0
2017-03-06T03:00:20.917Z,0
2017-03-06T03:01:20.564Z,0
2017-03-06T03:02:20.999Z,0
2017-03-06T03:03:20.645Z,0
2017-03-06T03:04:21.854Z,0
2017-03-06T03:05:21.093Z,0
2017-03-06T03:06:21.167Z,0
2017-03-06T03:07:21.152Z,0
2017-03-06T03:08:21.617Z,0
2017-03-06T03:09:21.065Z,0
2017-03-06T03:10:21.274Z,0
2017-03-06T03:11:21.701Z,0
2017-03-06T03:12:21.334Z,0
2017-03-06T03:13:21.769Z,0
2017-03-06T03:14:21.403Z,0
2017-03-06T03:15:21.432Z,0
2017-03-06T03:16:21.457Z,0
2017-03-06T03:17:21.512Z,0
2017-03-06T03:18:21.926Z,0
2017-03-06T03:19:21.162Z,0
2017-03-06T03:20:21.601Z,0
2017-03-06T03:21:22.023Z,0
2017-03-06T03:22:21.282Z,0
2017-03-06T03:23:21.303Z,0
2017-03-06T03:24:21.343Z,0
2017-03-06T03:25:21.768Z,0
2017-03-06T03:26:21.817Z,0
2017-03-06T03:27:21.458Z,0
2017-03-06T03:28:21.894Z,0
2017-03-06T03:29:22.297Z,0
2017-03-06T03:30:21.928Z,0
2017-03-06T03:31:21.970Z,0
2017-03-06T03:32:22.043Z,0
2017-03-06T03:33:22.035Z,0
2017-03-06T03:34:22.074Z,0
2017-03-06T03:35:22.915Z,0
2017-03-06T03:36:21.751Z,0
2017-03-06T03:37:22.556Z,0
2017-03-06T03:38:22.246Z,0
2017-03-06T03:39:22.254Z,0
2017-03-06T03:40:22.656Z,0
2017-03-06T03:41:22.320Z,0
2017-03-06T03:42:21.958Z,0
2017-03-06T03:43:22.005Z,0
2017-03-06T03:44:22.807Z,0
2017-03-06T03:45:22.449Z,0
2017-03-06T03:46:22.498Z,0
2017-03-06T03:47:22.143Z,0
2017-03-06T03:48:23.319Z,0
2017-03-06T03:49:22.981Z,0
2017-03-06T03:50:22.603Z,0
2017-03-06T03:51:22.275Z,0
2017-03-06T03:52:23.088Z,0
2017-03-06T03:53:23.109Z,0
2017-03-06T03:54:23.536Z,0
2017-03-06T03:55:22.792Z,0
2017-03-06T03:56:23.259Z,0
2017-03-06T03:57:22.851Z,0
2017-03-06T03:58:22.884Z,0
2017-03-06T03:59:23.314Z,0
2017-03-06T04:00:22.579Z,0
2017-03-06T04:01:22.988Z,0
2017-03-06T04:02:23.812Z,0
2017-03-06T04:03:23.461Z,0
2017-03-06T04:04:23.108Z,0
2017-03-06T04:05:23.123Z,0
2017-03-06T04:06:23.152Z,0
2017-03-06T04:07:23.989Z,0
2017-03-06T04:08:23.213Z,0
2017-03-06T04:09:23.264Z,0
2017-03-06T04:10:23.302Z,0
2017-03-06T04:11:23.317Z,0
2017-03-06T04:12:22.968Z,0
2017-03-06T04:13:22.993Z,0
2017-03-06T04:14:23.414Z,0
2017-03-06T04:15:23.463Z,0
2017-03-06T04:16:23.880Z,0
2017-03-06T04:17:23.515Z,0
2017-03-06T04:18:23.184Z,0
2017-03-06T04:19:23.999Z,0
2017-03-06T04:20:24.049Z,0
2017-03-06T04:21:23.651Z,0
2017-03-06T04:22:23.318Z,0
2017-03-06T04:23:24.132Z,0
2017-03-06T04:24:23.759Z,0
2017-03-06T04:25:24.185Z,0
2017-03-06T04:26:23.853Z,0
2017-03-06T04:27:23.882Z,0
2017-03-06T04:28:23.900Z,0
2017-03-06T04:29:23.925Z,0
2017-03-06T04:30:24.365Z,0
2017-03-06T04:31:23.612Z,0
2017-03-06T04:32:24.022Z,0
2017-03-06T04:33:24.450Z,0
2017-03-06T04:34:23.715Z,0
2017-03-06T04:35:23.743Z,0
2017-03-06T04:36:24.169Z,0
2017-03-06T04:37:24.199Z,0
2017-03-06T04:38:23.842Z,0
2017-03-06T04:39:24.272Z,0
2017-03-06T04:40:24.324Z,0
2017-03-06T04:41:24.330Z,0
2017-03-06T04:42:24.376Z,0
2017-03-06T04:43:24.798Z,0
2017-03-06T04:44:24.451Z,0
2017-03-06T04:45:24.084Z,0
2017-03-06T04:46:24.504Z,0
2017-03-06T04:47:24.551Z,0
2017-03-06T04:48:24.602Z,0
2017-03-06T04:49:24.620Z,0
2017-03-06T04:50:24.243Z,0
2017-03-06T04:51:24.672Z,0
2017-03-06T04:52:24.725Z,0
2017-03-06T04:53:24.759Z,0
2017-03-06T04:54:25.167Z,0
2017-03-06T04:55:25.203Z,0
2017-03-06T04:56:25.625Z,0
2017-03-06T04:57:24.890Z,0
2017-03-06T04:58:24.528Z,0
2017-03-06T04:59:24.558Z,0
2017-03-06T05:00:24.988Z,0
2017-03-06T05:01:24.872Z,0
2017-03-06T05:02:25.450Z,0
2017-03-06T05:03:24.684Z,0
2017-03-06T05:04:25.518Z,0
2017-03-06T05:05:25.157Z,0
2017-03-06T05:06:25.602Z,0
2017-03-06T05:07:25.624Z,0
2017-03-06T05:08:25.263Z,0
2017-03-06T05:09:25.693Z,0
2017-03-06T05:10:25.336Z,0
2017-03-06T05:11:25.758Z,0
2017-03-06T05:12:25.021Z,0
2017-03-06T05:13:25.425Z,0
2017-03-06T05:14:25.487Z,0
2017-03-06T05:15:25.494Z,0
2017-03-06T05:16:25.131Z,4
2017-03-06T05:17:25.981Z,4
2017-03-06T05:18:25.599Z,0
2017-03-06T05:19:25.629Z,4
2017-03-06T05:20:25.277Z,4
2017-03-06T05:21:25.315Z,4
2017-03-06T05:22:25.352Z,4
2017-03-06T05:23:25.753Z,4
2017-03-06T05:24:26.215Z,4
2017-03-06T05:25:25.446Z,8
2017-03-06T05:26:25.871Z,8
2017-03-06T05:27:26.682Z,8
2017-03-06T05:28:25.543Z,8
2017-03-06T05:29:26.777Z,16
2017-03-06T05:30:25.998Z,16
2017-03-06T05:31:26.439Z,16
2017-03-06T05:32:26.060Z,20
2017-03-06T05:33:25.705Z,24
2017-03-06T05:34:26.531Z,24
2017-03-06T05:35:26.161Z,24
2017-03-06T05:36:26.208Z,28
2017-03-06T05:37:26.254Z,28
2017-03-06T05:38:25.874Z,32
2017-03-06T05:39:26.306Z,36
2017-03-06T05:40:26.339Z,40
2017-03-06T05:41:27.166Z,40
2017-03-06T05:42:26.796Z,40
2017-03-06T05:43:26.843Z,48
2017-03-06T05:44:26.862Z,48
2017-03-06T05:45:26.155Z,56
2017-03-06T05:46:26.151Z,56
2017-03-06T05:47:26.955Z,60
2017-03-06T05:48:26.994Z,64
2017-03-06T05:49:27.035Z,72
2017-03-06T05:50:27.069Z,84
2017-03-06T05:51:27.110Z,88
2017-03-06T05:52:27.137Z,96
2017-03-06T05:53:27.163Z,104
2017-03-06T05:54:27.221Z,116
2017-03-06T05:55:26.461Z,128
2017-03-06T05:56:26.872Z,136
2017-03-06T05:57:26.908Z,148
2017-03-06T05:58:26.563Z,152
2017-03-06T05:59:27.389Z,152
2017-03-06T06:00:27.029Z,164
2017-03-06T06:01:27.841Z,176
2017-03-06T06:02:26.700Z,184
2017-03-06T06:03:27.507Z,200
2017-03-06T06:04:27.203Z,224
2017-03-06T06:05:27.970Z,248
2017-03-06T06:06:27.236Z,272
2017-03-06T06:07:26.862Z,292
2017-03-06T06:08:27.291Z,304
2017-03-06T06:09:26.929Z,304
2017-03-06T06:10:27.358Z,316
2017-03-06T06:11:27.045Z,336
2017-03-06T06:12:27.806Z,368
2017-03-06T06:13:27.067Z,396
2017-03-06T06:14:27.509Z,404
2017-03-06T06:15:27.144Z,424
2017-03-06T06:16:27.568Z,448
2017-03-06T06:17:27.622Z,468
2017-03-06T06:18:27.260Z,484
2017-03-06T06:19:27.663Z,512
2017-03-06T06:20:28.082Z,536
2017-03-06T06:21:27.747Z,564
2017-03-06T06:22:27.755Z,592
2017-03-06T06:23:27.805Z,604
2017-03-06T06:24:27.442Z,620
2017-03-06T06:25:27.475Z,624
2017-03-06T06:26:28.692Z,620
2017-03-06T06:27:27.551Z,588
2017-03-06T06:28:28.407Z,548
2017-03-06T06:29:28.002Z,524
2017-03-06T06:30:28.818Z,500
2017-03-06T06:31:28.465Z,492
2017-03-06T06:32:28.497Z,508
2017-03-06T06:33:27.748Z,512
2017-03-06T06:34:28.570Z,532
2017-03-06T06:35:28.209Z,564
2017-03-06T06:36:28.267Z,576
2017-03-06T06:37:28.678Z,560
2017-03-06T06:38:28.306Z,552
2017-03-06T06:39:28.752Z,540
2017-03-06T06:40:27.993Z,568
2017-03-06T06:41:28.442Z,604
2017-03-06T06:42:28.528Z,620
2017-03-06T06:43:29.262Z,632
2017-03-06T06:44:28.511Z,644
2017-03-06T06:45:28.970Z,680
2017-03-06T06:46:28.994Z,748
2017-03-06T06:47:28.852Z,776
2017-03-06T06:48:29.061Z,848
2017-03-06T06:49:28.700Z,928
2017-03-06T06:50:29.632Z,964
2017-03-06T06:51:28.378Z,1008
2017-03-06T06:52:28.818Z,1040
2017-03-06T06:53:29.042Z,1156
2017-03-06T06:54:29.262Z,1288
2017-03-06T06:55:28.497Z,1336
2017-03-06T06:56:28.547Z,1308
2017-03-06T06:57:29.749Z,1316
2017-03-06T06:58:28.605Z,1316
2017-03-06T06:59:29.093Z,1268
2017-03-06T07:00:29.070Z,1296
2017-03-06T07:01:29.486Z,1392
2017-03-06T07:02:29.152Z,1564
2017-03-06T07:03:29.174Z,1676
2017-03-06T07:04:29.233Z,1680
2017-03-06T07:05:29.659Z,1704
2017-03-06T07:06:29.669Z,1676
2017-03-06T07:07:29.340Z,1620
2017-03-06T07:08:29.354Z,1604
2017-03-06T07:09:28.979Z,1588
2017-03-06T07:10:29.814Z,1572
2017-03-06T07:11:29.831Z,1576
2017-03-06T07:12:29.480Z,1592
2017-03-06T07:13:29.510Z,1628
2017-03-06T07:14:29.589Z,1588
2017-03-06T07:15:29.973Z,1668
2017-03-06T07:16:29.616Z,1780
2017-03-06T07:17:29.267Z,1876
2017-03-06T07:18:29.708Z,1904
2017-03-06T07:19:29.715Z,1976
2017-03-06T07:20:30.139Z,2076
2017-03-06T07:21:30.159Z,2204
2017-03-06T07:22:30.223Z,2300
2017-03-06T07:23:29.892Z,2460
2017-03-06T07:24:30.286Z,2540
2017-03-06T07:25:29.948Z,2600
2017-03-06T07:26:29.963Z,2680
2017-03-06T07:27:30.433Z,2760
2017-03-06T07:28:30.428Z,2840
2017-03-06T07:29:30.462Z,2888
2017-03-06T07:30:29.719Z,2948
2017-03-06T07:31:30.131Z,3064
2017-03-06T07:32:30.958Z,3136
2017-03-06T07:33:29.820Z,3076
2017-03-06T07:34:30.229Z,3188
2017-03-06T07:35:29.886Z,3192
2017-03-06T07:36:29.908Z,3068
2017-03-06T07:37:31.140Z,3044
2017-03-06T07:38:30.372Z,2848
2017-03-06T07:39:30.047Z,2748
2017-03-06T07:40:30.457Z,2696
2017-03-06T07:41:30.081Z,2604
2017-03-06T07:42:30.935Z,2600
2017-03-06T07:43:30.950Z,2544
2017-03-06T07:44:30.609Z,2584
2017-03-06T07:45:30.615Z,2628
2017-03-06T07:46:30.645Z,2600
2017-03-06T07:47:30.703Z,2668
2017-03-06T07:48:30.327Z,2792
2017-03-06T07:49:31.149Z,2844
2017-03-06T07:50:30.401Z,2908
2017-03-06T07:51:30.427Z,2976
2017-03-06T07:52:30.473Z,2988
2017-03-06T07:53:31.273Z,2932
2017-03-06T07:54:31.320Z,2888
2017-03-06T07:55:31.344Z,2884
2017-03-06T07:56:31.384Z,2864
2017-03-06T07:57:31.421Z,2796
2017-03-06T07:58:31.090Z,2720
2017-03-06T07:59:30.718Z,2636
2017-03-06T08:00:31.531Z,2556
2017-03-06T08:01:31.946Z,2496
2017-03-06T08:02:31.208Z,2472
2017-03-06T08:03:31.708Z,2460
2017-03-06T08:04:30.892Z,2460
2017-03-06T08:05:30.915Z,2468
2017-03-06T08:06:31.742Z,2460
2017-03-06T08:07:32.144Z,2456
2017-03-06T08:08:31.412Z,2444
2017-03-06T08:09:31.424Z,2420
2017-03-06T08:10:32.272Z,2404
2017-03-06T08:11:31.111Z,2364
2017-03-06T08:12:31.929Z,2320
2017-03-06T08:13:31.563Z,2268
2017-03-06T08:14:31.988Z,2220
2017-03-06T08:15:31.646Z,2340
2017-03-06T08:16:31.277Z,2416
2017-03-06T08:17:31.314Z,2520
2017-03-06T08:18:32.130Z,2676
2017-03-06T08:19:32.180Z,2904
2017-03-06T08:20:31.808Z,3140
2017-03-06T08:21:31.874Z,3356
2017-03-06T08:22:32.527Z,3604
2017-03-06T08:23:31.554Z,3852
2017-03-06T08:24:31.936Z,4036
2017-03-06T08:25:32.018Z,4140
2017-03-06T08:26:32.042Z,4132
2017-03-06T08:27:31.657Z,3988
2017-03-06T08:28:32.476Z,3888
2017-03-06T08:29:32.121Z,3820
2017-03-06T08:30:32.161Z,3772
2017-03-06T08:31:32.602Z,3744
2017-03-06T08:32:32.239Z,3692
2017-03-06T08:33:31.864Z,3624
2017-03-06T08:34:32.281Z,3736
2017-03-06T08:35:32.312Z,3800
2017-03-06T08:36:32.749Z,3868
2017-03-06T08:37:32.404Z,3872
2017-03-06T08:38:32.043Z,3952
2017-03-06T08:39:32.460Z,4036
2017-03-06T08:40:32.099Z,4080
2017-03-06T08:41:32.129Z,4096
2017-03-06T08:42:32.963Z,4120
2017-03-06T08:43:32.592Z,4048
2017-03-06T08:44:32.629Z,4096
2017-03-06T08:45:33.066Z,4092
2017-03-06T08:46:32.705Z,4388
2017-03-06T08:47:32.474Z,4556
2017-03-06T08:48:33.162Z,4732
2017-03-06T08:49:32.420Z,4856
2017-03-06T08:50:33.233Z,5320
2017-03-06T08:51:33.692Z,5512
2017-03-06T08:52:32.927Z,5560
2017-03-06T08:53:32.540Z,5640
2017-03-06T08:54:32.573Z,5720
2017-03-06T08:55:32.992Z,5596
2017-03-06T08:56:32.649Z,5464
2017-03-06T08:57:32.696Z,5192
2017-03-06T08:58:33.556Z,5012
2017-03-06T08:59:33.540Z,4656
2017-03-06T09:00:32.793Z,4740
2017-03-06T09:01:33.593Z,4688
2017-03-06T09:02:33.249Z,4576
2017-03-06T09:03:32.892Z,4656
2017-03-06T09:04:33.697Z,4564
2017-03-06T09:05:32.991Z,5124
2017-03-06T09:06:33.374Z,5328
2017-03-06T09:07:33.864Z,5548
2017-03-06T09:08:33.834Z,5484
2017-03-06T09:09:34.275Z,5732
2017-03-06T09:10:33.525Z,5876
2017-03-06T09:11:33.559Z,5756
2017-03-06T09:12:33.577Z,5632
2017-03-06T09:13:33.614Z,5884
2017-03-06T09:14:33.675Z,5492
2017-03-06T09:15:33.293Z,5308
2017-03-06T09:16:33.377Z,4772
2017-03-06T09:17:33.760Z,5004
2017-03-06T09:18:33.792Z,5464
2017-03-06T09:19:33.816Z,5444
2017-03-06T09:20:33.915Z,5288
2017-03-06T09:21:33.536Z,5672
2017-03-06T09:22:34.013Z,5808
2017-03-06T09:23:33.986Z,6004
2017-03-06T09:24:34.790Z,6056
2017-03-06T09:25:37.394Z,5960
2017-03-06T09:26:34.785Z,5932
2017-03-06T09:27:37.262Z,5984
2017-03-06T09:28:34.534Z,5884
2017-03-06T09:29:37.075Z,5652
2017-03-06T09:30:33.812Z,5492
2017-03-06T09:31:34.664Z,5428
2017-03-06T09:32:34.272Z,5240
2017-03-06T09:33:34.310Z,5080
2017-03-06T09:34:34.736Z,5212
2017-03-06T09:35:34.023Z,5128
2017-03-06T09:36:34.796Z,5324
2017-03-06T09:37:34.538Z,5380
2017-03-06T09:38:35.012Z,5308
2017-03-06T09:39:34.530Z,5552
2017-03-06T09:40:34.550Z,6200
2017-03-06T09:41:34.220Z,6328
2017-03-06T09:42:36.856Z,6580
2017-03-06T09:43:35.060Z,6872
2017-03-06T09:44:34.690Z,6876
2017-03-06T09:45:34.343Z,6700
2017-03-06T09:46:35.169Z,6452
2017-03-06T09:47:34.804Z,6452
2017-03-06T09:48:34.829Z,6752
2017-03-06T09:49:34.872Z,7568
2017-03-06T09:50:34.559Z,7544
2017-03-06T09:51:35.358Z,6808
2017-03-06T09:52:35.373Z,7476
2017-03-06T09:53:35.409Z,7952
2017-03-06T09:54:35.487Z,8136
2017-03-06T09:55:35.985Z,8444
2017-03-06T09:56:34.719Z,7500
2017-03-06T09:57:35.157Z,6900
2017-03-06T09:58:35.579Z,6616
2017-03-06T09:59:34.837Z,6112
2017-03-06T10:00:36.056Z,6952
2017-03-06T10:01:34.896Z,7808
2017-03-06T10:02:34.937Z,7844
2017-03-06T10:03:35.358Z,7840
2017-03-06T10:04:35.782Z,7404
2017-03-06T10:05:36.351Z,6952
2017-03-06T10:06:35.087Z,7900
2017-03-06T10:07:35.123Z,8996
2017-03-06T10:08:36.112Z,7856
2017-03-06T10:09:35.558Z,6892
2017-03-06T10:10:35.208Z,6328
2017-03-06T10:11:35.435Z,5676
2017-03-06T10:12:35.756Z,6424
2017-03-06T10:13:35.699Z,5112
2017-03-06T10:14:36.140Z,4900
2017-03-06T10:15:35.392Z,4860
2017-03-06T10:16:35.496Z,5536
2017-03-06T10:17:35.842Z,6044
2017-03-06T10:18:35.482Z,7372
2017-03-06T10:19:36.322Z,8592
2017-03-06T10:20:35.969Z,6716
2017-03-06T10:21:35.612Z,6272
2017-03-06T10:22:36.103Z,6796
2017-03-06T10:23:36.460Z,5940
2017-03-06T10:24:36.098Z,5884
2017-03-06T10:25:36.187Z,5568
2017-03-06T10:26:35.776Z,5436
2017-03-06T10:27:36.219Z,4492
2017-03-06T10:28:36.244Z,4676
2017-03-06T10:29:36.294Z,5164
2017-03-06T10:30:36.334Z,5108
2017-03-06T10:31:36.415Z,6420
2017-03-06T10:32:36.398Z,5476
2017-03-06T10:33:36.834Z,6008
2017-03-06T10:34:36.467Z,6696
2017-03-06T10:35:36.888Z,6128
2017-03-06T10:36:36.660Z,5776
2017-03-06T10:37:36.223Z,6348
2017-03-06T10:38:36.984Z,6108
2017-03-06T10:39:37.414Z,5192
2017-03-06T10:40:36.709Z,4528
2017-03-06T10:41:36.335Z,4336
2017-03-06T10:42:37.134Z,5920
2017-03-06T10:43:36.794Z,7264
2017-03-06T10:44:37.184Z,7116
2017-03-06T10:45:36.838Z,6500
2017-03-06T10:46:36.894Z,5480
2017-03-06T10:47:37.322Z,6660
2017-03-06T10:48:37.341Z,7408
2017-03-06T10:49:36.984Z,7788
2017-03-06T10:50:37.034Z,7592
2017-03-06T10:51:37.826Z,6260
2017-03-06T10:52:37.076Z,5376
2017-03-06T10:53:37.165Z,5256
2017-03-06T10:54:37.545Z,5128
2017-03-06T10:55:37.592Z,5356
2017-03-06T10:56:37.229Z,5696
2017-03-06T10:57:37.905Z,5836
2017-03-06T10:58:37.715Z,6856
2017-03-06T10:59:37.337Z,8300
2017-03-06T11:00:37.006Z,8556
2017-03-06T11:01:37.037Z,8488
2017-03-06T11:02:37.439Z,7972
2017-03-06T11:03:37.099Z,7884
2017-03-06T11:04:37.531Z,7460
2017-03-06T11:05:37.151Z,7728
2017-03-06T11:06:37.989Z,7900
2017-03-06T11:07:37.236Z,7216
2017-03-06T11:08:37.663Z,6700
2017-03-06T11:09:37.689Z,7044
2017-03-06T11:10:37.728Z,6444
2017-03-06T11:11:38.157Z,6116
2017-03-06T11:12:37.790Z,5136
2017-03-06T11:13:37.877Z,4788
2017-03-06T11:14:37.926Z,4912
2017-03-06T11:15:37.938Z,4844
2017-03-06T11:16:37.947Z,4824
2017-03-06T11:17:38.015Z,5412
2017-03-06T11:18:38.401Z,5960
2017-03-06T11:19:37.664Z,6784
2017-03-06T11:20:38.088Z,7544
2017-03-06T11:21:38.520Z,7876
2017-03-06T11:22:38.756Z,7868
2017-03-06T11:23:38.624Z,7760
2017-03-06T11:24:38.256Z,7520
2017-03-06T11:25:38.267Z,6692
2017-03-06T11:26:38.309Z,5928
2017-03-06T11:27:39.137Z,6084
2017-03-06T11:28:38.478Z,5904
2017-03-06T11:29:38.444Z,5512
2017-03-06T11:30:38.072Z,5652
2017-03-06T11:31:38.084Z,5632
2017-03-06T11:32:38.112Z,5388
2017-03-06T11:33:38.174Z,4912
2017-03-06T11:34:38.615Z,4008
2017-03-06T11:35:39.431Z,3944
2017-03-06T11:36:38.268Z,4544
2017-03-06T11:37:41.491Z,4572
2017-03-06T11:38:38.351Z,4552
2017-03-06T11:39:38.777Z,4764
2017-03-06T11:40:38.807Z,4844
2017-03-06T11:41:39.236Z,4764
2017-03-06T11:42:38.903Z,4480
2017-03-06T11:43:38.526Z,4720
2017-03-06T11:44:39.735Z,5132
2017-03-06T11:45:39.783Z,5900
2017-03-06T11:46:39.037Z,6340
2017-03-06T11:47:39.491Z,6824
2017-03-06T11:48:39.115Z,7584
2017-03-06T11:49:39.570Z,8372
2017-03-06T11:50:39.206Z,9404
2017-03-06T11:51:38.811Z,10728
2017-03-06T11:52:38.870Z,11640
2017-03-06T11:53:39.291Z,12216
2017-03-06T11:54:39.693Z,12084
2017-03-06T11:55:40.130Z,12048
2017-03-06T11:56:39.398Z,11936
2017-03-06T11:57:39.024Z,11704
2017-03-06T11:58:39.056Z,11284
2017-03-06T11:59:39.500Z,10840
2017-03-06T12:00:39.514Z,10668
2017-03-06T12:01:39.573Z,10248
2017-03-06T12:02:39.991Z,9636
2017-03-06T12:03:39.636Z,8872
2017-03-06T12:04:40.454Z,8672
2017-03-06T12:05:39.702Z,8836
2017-03-06T12:06:39.742Z,8788
2017-03-06T12:07:39.787Z,8752
2017-03-06T12:08:39.830Z,8632
2017-03-06T12:09:39.849Z,8464
2017-03-06T12:10:40.301Z,8328
2017-03-06T12:11:40.309Z,8200
2017-03-06T12:12:39.969Z,8036
2017-03-06T12:13:39.612Z,7936
2017-03-06T12:14:40.038Z,7832
2017-03-06T12:15:40.094Z,7720
2017-03-06T12:16:40.522Z,7660
2017-03-06T12:17:39.880Z,7584
2017-03-06T12:18:40.584Z,7500
2017-03-06T12:19:40.271Z,7416
2017-03-06T12:20:39.873Z,7340
2017-03-06T12:21:40.476Z,7224
2017-03-06T12:22:40.727Z,7092
2017-03-06T12:23:40.471Z,6956
2017-03-06T12:24:40.810Z,6844
2017-03-06T12:25:40.513Z,6780
2017-03-06T12:26:40.099Z,6732
2017-03-06T12:27:40.932Z,6764
2017-03-06T12:28:40.549Z,6792
2017-03-06T12:29:40.720Z,6836
2017-03-06T12:30:40.639Z,6880
2017-03-06T12:31:40.702Z,6956
2017-03-06T12:32:40.707Z,7048
2017-03-06T12:33:41.152Z,7108
2017-03-06T12:34:40.812Z,7164
2017-03-06T12:35:41.282Z,7220
2017-03-06T12:36:40.849Z,7288
2017-03-06T12:37:41.312Z,7364
2017-03-06T12:38:40.979Z,7452
2017-03-06T12:39:40.651Z,7484
2017-03-06T12:40:41.122Z,7516
2017-03-06T12:41:41.823Z,7600
2017-03-06T12:42:41.078Z,7676
2017-03-06T12:43:41.128Z,7712
2017-03-06T12:44:40.838Z,7704
2017-03-06T12:45:41.670Z,7672
2017-03-06T12:46:40.831Z,7596
2017-03-06T12:47:41.670Z,7588
2017-03-06T12:48:41.714Z,7556
2017-03-06T12:49:41.458Z,7496
2017-03-06T12:50:40.974Z,7416
2017-03-06T12:51:41.448Z,7312
2017-03-06T12:52:41.437Z,7176
2017-03-06T12:53:41.495Z,7032
2017-03-06T12:54:42.418Z,6980
2017-03-06T12:55:41.561Z,6892
2017-03-06T12:56:42.362Z,6720
2017-03-06T12:57:41.236Z,6644
2017-03-06T12:58:41.662Z,6712
2017-03-06T12:59:41.326Z,6808
2017-03-06T13:00:41.743Z,6824
2017-03-06T13:01:41.766Z,6768
2017-03-06T13:02:41.828Z,6748
2017-03-06T13:03:41.485Z,6800
2017-03-06T13:04:42.273Z,6868
2017-03-06T13:05:42.324Z,6972
2017-03-06T13:06:41.581Z,7104
2017-03-06T13:07:42.014Z,7312
2017-03-06T13:08:42.041Z,7516
2017-03-06T13:09:42.080Z,7696
2017-03-06T13:10:41.731Z,7648
2017-03-06T13:11:42.139Z,7456
2017-03-06T13:12:41.775Z,7296
2017-03-06T13:13:42.210Z,7040
2017-03-06T13:14:42.264Z,6636
2017-03-06T13:15:42.686Z,6100
2017-03-06T13:16:42.710Z,5740
2017-03-06T13:17:41.979Z,5448
2017-03-06T13:18:42.007Z,5088
2017-03-06T13:19:42.432Z,4860
2017-03-06T13:20:42.865Z,4904
2017-03-06T13:21:42.514Z,4984
2017-03-06T13:22:42.144Z,4892
2017-03-06T13:23:42.590Z,4744
2017-03-06T13:24:42.643Z,4676
2017-03-06T13:25:42.661Z,4728
2017-03-06T13:26:42.698Z,4844
2017-03-06T13:27:42.402Z,4924
2017-03-06T13:28:42.761Z,4964
2017-03-06T13:29:42.830Z,4896
2017-03-06T13:30:42.433Z,4700
2017-03-06T13:31:42.506Z,4400
2017-03-06T13:32:43.298Z,4064
2017-03-06T13:33:42.962Z,3668
2017-03-06T13:34:43.764Z,3292
2017-03-06T13:35:43.429Z,3032
2017-03-06T13:36:42.680Z,2940
2017-03-06T13:37:42.703Z,2888
2017-03-06T13:38:43.135Z,2956
2017-03-06T13:39:42.771Z,3340
2017-03-06T13:40:43.430Z,3756
2017-03-06T13:41:43.649Z,4052
2017-03-06T13:42:42.879Z,4192
2017-03-06T13:43:43.301Z,4240
2017-03-06T13:44:43.739Z,4248
2017-03-06T13:45:43.500Z,4224
2017-03-06T13:46:43.020Z,4188
2017-03-06T13:47:43.481Z,4132
2017-03-06T13:48:43.894Z,4072
2017-03-06T13:49:43.542Z,4004
2017-03-06T13:50:43.951Z,3948
2017-03-06T13:51:44.428Z,3896
2017-03-06T13:52:43.626Z,3864
2017-03-06T13:53:43.285Z,3828
2017-03-06T13:54:44.098Z,3768